createdAt,value
2022-11-20T00:00:18.859Z,35.50
2022-11-20T00:02:45.637Z,36.20
2022-11-20T00:05:12.373Z,31.83
2022-11-20T00:07:39.094Z,38.37
2022-11-20T00:10:06.252Z,35.80
2022-11-20T00:12:32.953Z,36.80
2022-11-20T00:14:59.691Z,37.07
2022-11-20T00:17:26.447Z,33.67
2022-11-20T00:19:53.106Z,38.63
2022-11-20T00:22:19.825Z,38.97
2022-11-20T00:24:46.499Z,34.70
2022-11-20T00:27:13.236Z,39.20
2022-11-20T00:29:39.993Z,36.73
2022-11-20T00:32:06.656Z,36.37
2022-11-20T00:34:33.307Z,37.37
2022-11-20T00:36:59.972Z,34.40
2022-11-20T00:39:26.642Z,33.03
2022-11-20T00:41:55.291Z,36.70
2022-11-20T00:44:21.975Z,45.20
2022-11-20T00:46:48.628Z,42.90
2022-11-20T00:49:15.292Z,42.57
2022-11-20T00:51:41.953Z,38.60
2022-11-20T00:54:08.682Z,34.43
2022-11-20T00:56:35.382Z,36.83
2022-11-20T00:59:02.293Z,36.77
2022-11-20T01:01:32.621Z,38.00
2022-11-20T01:04:01.192Z,35.23
2022-11-20T01:06:35.735Z,36.73
2022-11-20T01:09:07.041Z,32.63
2022-11-20T01:11:37.223Z,34.20
2022-11-20T01:14:06.316Z,34.27
2022-11-20T01:16:41.546Z,38.30
2022-11-20T01:19:17.645Z,33.47
2022-11-20T01:21:46.692Z,36.60
2022-11-20T01:24:15.439Z,39.87
2022-11-20T01:26:44.542Z,36.70
2022-11-20T01:29:14.966Z,38.60
2022-11-20T01:31:42.294Z,39.00
2022-11-20T01:34:12.885Z,35.53
2022-11-20T01:36:40.647Z,38.10
2022-11-20T01:39:13.236Z,38.50
2022-11-20T01:41:58.531Z,36.13
2022-11-20T01:44:54.915Z,36.87
2022-11-20T01:47:28.435Z,39.73
2022-11-20T01:50:06.005Z,38.13
2022-11-20T01:52:53.040Z,42.27
2022-11-20T01:55:24.738Z,39.30
2022-11-20T01:57:51.789Z,37.63
2022-11-20T02:00:20.765Z,37.40
2022-11-20T02:02:52.296Z,38.87
2022-11-20T02:05:29.556Z,38.63
2022-11-20T02:07:58.710Z,39.83
2022-11-20T02:10:26.745Z,39.43
2022-11-20T02:13:12.656Z,41.40
2022-11-20T02:15:39.488Z,35.57
2022-11-20T02:18:07.386Z,39.90
2022-11-20T02:20:34.107Z,35.87
2022-11-20T02:23:15.760Z,34.97
2022-11-20T02:25:43.857Z,34.87
2022-11-20T02:28:11.183Z,36.27
2022-11-20T02:30:37.923Z,37.17
2022-11-20T02:33:04.579Z,36.90
2022-11-20T02:35:31.409Z,35.10
2022-11-20T02:38:02.326Z,38.43
2022-11-20T02:40:29.422Z,38.20
2022-11-20T02:42:57.092Z,38.27
2022-11-20T02:45:25.004Z,33.53
2022-11-20T02:47:52.594Z,33.93
2022-11-20T02:50:19.622Z,36.73
2022-11-20T02:52:46.391Z,32.90
2022-11-20T02:55:13.174Z,36.57
2022-11-20T02:57:39.852Z,37.03
2022-11-20T03:00:07.880Z,35.90
2022-11-20T03:02:34.712Z,39.40
2022-11-20T03:05:01.533Z,40.03
2022-11-20T03:07:28.267Z,33.87
2022-11-20T03:09:55.086Z,35.37
2022-11-20T03:12:21.738Z,36.77
2022-11-20T03:14:52.873Z,38.37
2022-11-20T03:17:20.262Z,39.87
2022-11-20T03:19:46.961Z,37.67
2022-11-20T03:22:13.701Z,34.50
2022-11-20T03:24:40.371Z,38.03
2022-11-20T03:27:07.084Z,35.13
2022-11-20T03:29:33.765Z,36.73
2022-11-20T03:32:00.486Z,37.40
2022-11-20T03:34:27.165Z,37.10
2022-11-20T03:36:53.803Z,38.43
2022-11-20T03:39:20.715Z,35.07
2022-11-20T03:41:47.605Z,39.03
2022-11-20T03:44:14.311Z,38.33
2022-11-20T03:46:41.039Z,37.83
2022-11-20T03:49:07.702Z,36.53
2022-11-20T03:51:36.247Z,36.37
2022-11-20T03:54:07.564Z,35.43
2022-11-20T03:56:36.740Z,37.93
2022-11-20T03:59:04.312Z,37.73
2022-11-20T04:01:34.095Z,36.70
2022-11-20T04:04:00.844Z,33.87
2022-11-20T04:06:35.180Z,40.23
2022-11-20T04:09:01.910Z,39.53
2022-11-20T04:11:31.040Z,37.47
2022-11-20T04:14:00.600Z,37.93
2022-11-20T04:16:29.821Z,40.57
2022-11-20T04:18:58.928Z,40.03
2022-11-20T04:21:26.754Z,41.53
2022-11-20T04:23:54.541Z,38.60
2022-11-20T04:26:22.993Z,40.57
2022-11-20T04:28:49.645Z,37.37
2022-11-20T04:31:19.067Z,40.83
2022-11-20T04:33:46.273Z,38.00
2022-11-20T04:36:18.513Z,38.87
2022-11-20T04:38:46.055Z,40.53
2022-11-20T04:41:17.375Z,40.00
2022-11-20T04:43:49.180Z,38.90
2022-11-20T04:46:16.447Z,44.37
2022-11-20T04:48:43.178Z,41.77
2022-11-20T04:51:09.856Z,43.60
2022-11-20T04:53:36.552Z,41.30
2022-11-20T04:56:05.925Z,44.83
2022-11-20T04:58:33.101Z,37.53
2022-11-20T05:01:06.922Z,38.43
2022-11-20T05:03:36.384Z,40.93
2022-11-20T05:06:07.757Z,39.60
2022-11-20T05:08:34.917Z,36.60
2022-11-20T05:11:11.095Z,36.13
2022-11-20T05:13:38.724Z,39.40
2022-11-20T05:16:11.123Z,36.97
2022-11-20T05:18:39.036Z,36.67
2022-11-20T05:23:41.774Z,40.87
2022-11-20T05:26:15.575Z,39.13
2022-11-20T05:28:42.350Z,39.87
2022-11-20T05:31:14.382Z,38.33
2022-11-20T05:33:42.639Z,44.20
2022-11-20T05:36:10.332Z,38.97
2022-11-20T05:38:37.026Z,36.77
2022-11-20T05:41:15.503Z,44.73
2022-11-20T05:43:44.301Z,39.70
2022-11-20T05:46:13.333Z,41.97
2022-11-20T05:48:42.246Z,40.50
2022-11-20T05:51:10.971Z,38.23
2022-11-20T05:53:39.128Z,40.77
2022-11-20T05:56:13.846Z,39.70
2022-11-20T05:58:41.162Z,40.20
2022-11-20T06:01:18.016Z,46.67
2022-11-20T06:03:48.252Z,37.80
2022-11-20T06:06:16.491Z,41.53
2022-11-20T06:08:43.630Z,41.53
2022-11-20T06:11:12.487Z,37.73
2022-11-20T06:13:42.273Z,38.57
2022-11-20T06:16:10.274Z,41.57
2022-11-20T06:18:37.485Z,41.23
2022-11-20T06:21:09.845Z,40.70
2022-11-20T06:23:37.122Z,43.57
2022-11-20T06:26:06.166Z,40.07
2022-11-20T06:28:33.179Z,42.03
2022-11-20T06:31:00.040Z,41.73
2022-11-20T06:33:26.998Z,41.47
2022-11-20T06:36:00.012Z,40.03
2022-11-20T06:38:29.087Z,43.50
2022-11-20T06:40:56.371Z,38.00
2022-11-20T06:43:23.938Z,40.27
2022-11-20T06:45:54.868Z,44.70
2022-11-20T06:48:21.877Z,38.80
2022-11-20T06:50:48.674Z,38.17
2022-11-20T06:53:15.372Z,41.47
2022-11-20T06:55:46.421Z,42.37
2022-11-20T06:58:14.629Z,43.10
2022-11-20T07:00:41.924Z,44.97
2022-11-20T07:03:10.570Z,39.80
2022-11-20T07:05:38.010Z,40.57
2022-11-20T07:08:05.629Z,44.70
2022-11-20T07:10:33.166Z,44.17
2022-11-20T07:13:00.606Z,45.47
2022-11-20T07:15:27.669Z,40.93
2022-11-20T07:17:54.547Z,38.20
2022-11-20T07:20:21.328Z,44.07
2022-11-20T07:22:48.010Z,42.70
2022-11-20T07:25:14.731Z,40.37
2022-11-20T07:27:41.477Z,43.63
2022-11-20T07:30:08.507Z,41.07
2022-11-20T07:32:35.237Z,44.00
2022-11-20T07:35:01.975Z,39.40
2022-11-20T07:37:28.736Z,41.87
2022-11-20T07:39:55.408Z,39.67
2022-11-20T07:42:22.066Z,44.83
2022-11-20T07:44:48.756Z,44.83
2022-11-20T07:47:15.469Z,40.70
2022-11-20T07:49:42.126Z,62.53
2022-11-20T07:52:08.800Z,49.13
2022-11-20T07:54:35.459Z,47.17
2022-11-20T07:57:02.122Z,49.37
2022-11-20T07:59:28.783Z,41.00
2022-11-20T08:01:56.114Z,38.80
2022-11-20T08:04:22.781Z,37.37
2022-11-20T08:06:49.699Z,39.03
2022-11-20T08:09:16.376Z,37.07
2022-11-20T08:12:01.844Z,39.70
2022-11-20T08:14:28.722Z,40.03
2022-11-20T08:16:55.486Z,48.97
2022-11-20T08:19:22.498Z,38.93
2022-11-20T08:21:49.429Z,38.07
2022-11-20T08:24:16.197Z,42.93
2022-11-20T08:26:42.942Z,42.03
2022-11-20T08:29:09.747Z,40.17
2022-11-20T08:31:36.641Z,44.83
2022-11-20T08:34:08.754Z,43.30
2022-11-20T08:36:36.670Z,41.83
2022-11-20T08:39:04.271Z,41.07
2022-11-20T08:41:33.799Z,39.23
2022-11-20T08:44:03.040Z,38.53
2022-11-20T08:46:34.872Z,38.03
2022-11-20T08:49:01.655Z,40.67
2022-11-20T08:51:28.346Z,43.33
2022-11-20T08:53:55.067Z,40.80
2022-11-20T08:56:21.738Z,47.53
2022-11-20T08:59:17.936Z,45.07
2022-11-20T09:01:35.196Z,41.67
2022-11-20T09:04:01.916Z,44.43
2022-11-20T09:06:28.589Z,49.83
2022-11-20T09:08:55.814Z,45.83
2022-11-20T09:11:23.044Z,45.13
2022-11-20T09:13:50.240Z,49.30
2022-11-20T09:16:16.947Z,48.17
2022-11-20T09:18:43.826Z,50.27
2022-11-20T09:21:13.889Z,47.10
2022-11-20T09:23:41.161Z,46.67
2022-11-20T09:26:12.811Z,41.83
2022-11-20T09:28:39.654Z,44.70
2022-11-20T09:31:08.221Z,47.30
2022-11-20T09:33:35.690Z,40.90
2022-11-20T09:36:02.376Z,45.40
2022-11-20T09:38:29.206Z,40.00
2022-11-20T09:41:37.414Z,42.87
2022-11-20T09:44:26.844Z,42.10
2022-11-20T09:47:03.552Z,39.57
2022-11-20T09:49:39.019Z,43.20
2022-11-20T09:52:31.428Z,41.00
2022-11-20T09:54:58.799Z,40.10
2022-11-20T09:57:35.224Z,40.53
2022-11-20T10:00:05.726Z,40.17
2022-11-20T10:02:42.064Z,44.63
2022-11-20T10:05:32.534Z,42.13
2022-11-20T10:08:25.124Z,38.30
2022-11-20T10:11:16.995Z,35.40
2022-11-20T10:14:05.496Z,37.23
2022-11-20T10:16:56.303Z,40.47
2022-11-20T10:19:45.403Z,39.77
2022-11-20T10:22:36.782Z,34.53
2022-11-20T10:25:25.410Z,35.07
2022-11-20T10:28:19.304Z,37.53
2022-11-20T10:30:50.065Z,40.10
2022-11-20T10:33:23.610Z,42.40
2022-11-20T10:36:15.842Z,35.80
2022-11-20T10:38:54.885Z,37.53
2022-11-20T10:41:30.858Z,34.50
2022-11-20T10:44:37.158Z,32.00
2022-11-20T10:47:06.275Z,33.00
2022-11-20T10:49:34.717Z,33.67
2022-11-20T10:52:14.300Z,28.73
2022-11-20T10:55:02.708Z,29.23
2022-11-20T10:57:57.542Z,29.40
2022-11-20T11:00:24.356Z,30.70
2022-11-20T11:02:54.076Z,33.37
2022-11-20T11:05:38.857Z,30.53
2022-11-20T11:08:13.200Z,33.17
2022-11-20T11:10:55.706Z,33.60
2022-11-20T11:13:27.746Z,31.87
2022-11-20T11:15:55.202Z,27.67
2022-11-20T11:18:28.248Z,23.00
2022-11-20T11:20:57.076Z,25.90
2022-11-20T11:23:35.047Z,26.83
2022-11-20T11:26:04.677Z,25.80
2022-11-20T11:28:31.668Z,22.47
2022-11-20T11:30:58.639Z,23.23
2022-11-20T11:33:27.884Z,23.40
2022-11-20T11:36:04.141Z,30.03
2022-11-20T11:38:41.607Z,26.13
2022-11-20T11:41:16.267Z,24.93
2022-11-20T11:44:20.528Z,20.33
2022-11-20T11:46:58.785Z,19.90
2022-11-20T11:49:25.902Z,20.13
2022-11-20T11:52:09.614Z,22.97
2022-11-20T11:54:45.248Z,19.90
2022-11-20T11:57:41.893Z,19.43
2022-11-20T12:00:21.711Z,20.27
2022-11-20T12:02:51.344Z,18.67
2022-11-20T12:05:22.896Z,17.80
2022-11-20T12:08:06.952Z,15.80
2022-11-20T12:10:39.018Z,16.20
2022-11-20T12:13:34.471Z,15.83
2022-11-20T12:16:02.567Z,16.00
2022-11-20T12:18:30.121Z,15.53
2022-11-20T12:21:21.478Z,16.77
2022-11-20T12:24:19.272Z,14.83
2022-11-20T12:27:04.558Z,13.07
2022-11-20T12:29:49.358Z,9.97
2022-11-20T12:32:15.995Z,8.60
2022-11-20T12:35:10.068Z,8.33
2022-11-20T12:38:06.322Z,7.13
2022-11-20T12:41:01.662Z,7.47
2022-11-20T12:44:23.490Z,7.00
2022-11-20T12:47:20.347Z,7.20
2022-11-20T12:50:20.872Z,7.53
2022-11-20T12:53:05.314Z,8.30
2022-11-20T12:55:42.986Z,13.30
2022-11-20T12:58:16.852Z,10.93
2022-11-20T13:00:57.556Z,12.30
2022-11-20T13:03:24.259Z,13.50
2022-11-20T13:06:05.811Z,12.47
2022-11-20T13:08:39.460Z,12.77
2022-11-20T13:11:08.926Z,9.73
2022-11-20T13:13:50.363Z,9.97
2022-11-20T13:16:39.345Z,12.07
2022-11-20T13:19:14.141Z,10.73
2022-11-20T13:21:44.855Z,11.77
2022-11-20T13:24:20.952Z,10.87
2022-11-20T13:26:48.403Z,14.77
2022-11-20T13:29:21.319Z,13.30
2022-11-20T13:31:49.649Z,11.50
2022-11-20T13:34:27.570Z,12.27
2022-11-20T13:36:57.055Z,13.60
2022-11-20T13:39:35.542Z,16.97
2022-11-20T13:42:21.700Z,14.40
2022-11-20T13:44:54.274Z,13.30
2022-11-20T13:47:26.255Z,13.73
2022-11-20T13:49:57.592Z,12.03
2022-11-20T13:52:48.738Z,13.07
2022-11-20T13:55:27.698Z,13.03
2022-11-20T13:58:03.620Z,12.87
2022-11-20T14:00:30.530Z,13.87
2022-11-20T14:03:06.428Z,16.10
2022-11-20T14:05:39.474Z,14.63
2022-11-20T14:08:11.658Z,17.37
2022-11-20T14:10:40.191Z,16.13
2022-11-20T14:13:20.633Z,14.87
2022-11-20T14:15:47.558Z,12.37
2022-11-20T14:18:25.220Z,13.70
2022-11-20T14:20:51.987Z,12.80
2022-11-20T14:23:30.296Z,14.47
2022-11-20T14:25:57.779Z,14.03
2022-11-20T14:28:29.881Z,14.37
2022-11-20T14:30:58.129Z,12.60
2022-11-20T14:33:27.287Z,12.10
2022-11-20T14:35:56.367Z,15.10
2022-11-20T14:38:27.501Z,16.07
2022-11-20T14:40:54.464Z,19.27
2022-11-20T14:43:27.319Z,28.53
2022-11-20T14:46:06.311Z,28.13
2022-11-20T14:48:47.804Z,29.67
2022-11-20T14:51:29.846Z,29.40
2022-11-20T14:53:56.493Z,28.30
2022-11-20T14:56:25.138Z,28.27
2022-11-20T14:59:00.650Z,23.00
2022-11-20T15:01:29.445Z,25.73
2022-11-20T15:04:11.818Z,22.90
2022-11-20T15:06:39.221Z,23.10
2022-11-20T15:09:14.006Z,42.27
2022-11-20T15:11:51.622Z,32.63
2022-11-20T15:14:18.336Z,33.77
2022-11-20T15:16:45.015Z,32.93
2022-11-20T15:19:20.726Z,29.77
2022-11-20T15:21:47.817Z,23.47
2022-11-20T15:24:15.169Z,22.43
2022-11-20T15:26:42.608Z,20.90
2022-11-20T15:29:15.172Z,19.07
2022-11-20T15:31:44.240Z,20.60
2022-11-20T15:34:15.311Z,20.27
2022-11-20T15:36:43.273Z,17.10
2022-11-20T15:39:10.347Z,19.40
2022-11-20T15:41:37.516Z,18.90
2022-11-20T15:44:05.593Z,20.90
2022-11-20T15:46:39.262Z,25.00
2022-11-20T15:49:06.887Z,22.90
2022-11-20T15:51:39.277Z,24.03
2022-11-20T15:54:14.994Z,20.87
2022-11-20T15:56:41.719Z,22.00
2022-11-20T15:59:08.572Z,20.90
2022-11-20T16:01:35.731Z,22.73
2022-11-20T16:04:02.620Z,25.73
2022-11-20T16:06:29.390Z,25.10
2022-11-20T16:08:57.276Z,23.97
2022-11-20T16:11:23.968Z,24.73
2022-11-20T16:14:09.382Z,22.37
2022-11-20T16:16:38.676Z,22.93
2022-11-20T16:19:05.559Z,21.87
2022-11-20T16:21:32.641Z,22.87
2022-11-20T16:24:05.359Z,23.27
2022-11-20T16:26:32.922Z,21.37
2022-11-20T16:29:01.260Z,24.43
2022-11-20T16:31:28.049Z,23.57
2022-11-20T16:33:56.744Z,23.80
2022-11-20T16:36:25.867Z,23.53
2022-11-20T16:38:56.455Z,19.10
2022-11-20T16:41:24.224Z,23.00
2022-11-20T16:43:56.980Z,19.63
2022-11-20T16:46:25.454Z,24.53
2022-11-20T16:49:01.036Z,22.00
2022-11-20T16:51:29.533Z,22.07
2022-11-20T16:53:57.331Z,22.50
2022-11-20T16:56:26.419Z,19.60
2022-11-20T16:58:56.422Z,24.10
2022-11-20T17:01:24.691Z,21.83
2022-11-20T17:03:58.627Z,22.57
2022-11-20T17:06:28.165Z,23.90
2022-11-20T17:08:56.324Z,20.57
2022-11-20T17:11:23.860Z,26.57
2022-11-20T17:13:51.063Z,25.27
2022-11-20T17:16:23.111Z,25.63
2022-11-20T17:18:50.371Z,28.90
2022-11-20T17:21:18.949Z,29.97
2022-11-20T17:37:13.326Z,30.60
2022-11-20T17:39:40.891Z,24.80
2022-11-20T17:42:26.016Z,28.43
2022-11-20T17:44:52.757Z,27.97
2022-11-20T17:47:20.730Z,32.30
2022-11-20T17:49:47.408Z,28.37
2022-11-20T17:52:16.084Z,30.03
2022-11-20T17:54:42.735Z,35.03
2022-11-20T17:57:28.953Z,34.90
2022-11-20T17:59:55.629Z,36.87
2022-11-20T18:02:22.296Z,33.20
2022-11-20T18:04:49.919Z,32.80
2022-11-20T18:07:16.673Z,32.70
2022-11-20T18:09:43.563Z,30.57
2022-11-20T18:12:10.268Z,44.20
2022-11-20T18:14:37.080Z,43.23
2022-11-20T18:17:05.252Z,32.80
2022-11-20T18:19:41.115Z,49.13
2022-11-20T18:22:16.578Z,31.40
2022-11-20T18:24:43.820Z,32.83
2022-11-20T18:27:19.284Z,32.63
2022-11-20T18:29:48.642Z,42.17
2022-11-20T18:32:15.405Z,38.57
2022-11-20T18:34:42.113Z,36.00
2022-11-20T18:37:09.792Z,37.60
2022-11-20T18:39:36.939Z,35.03
2022-11-20T18:42:22.259Z,34.20
2022-11-20T18:44:51.800Z,39.40
2022-11-20T18:47:19.907Z,33.70
2022-11-20T18:49:52.880Z,44.73
2022-11-20T18:52:27.993Z,35.17
2022-11-20T18:54:55.282Z,39.43
2022-11-20T18:57:28.144Z,31.43
2022-11-20T18:59:55.983Z,30.57
2022-11-20T19:02:23.146Z,33.30
2022-11-20T19:04:49.896Z,31.27
2022-11-20T19:07:17.490Z,32.87
2022-11-20T19:09:48.040Z,30.53
2022-11-20T19:12:15.102Z,28.00
2022-11-20T19:14:41.953Z,28.93
2022-11-20T19:17:09.480Z,32.33
2022-11-20T19:19:37.393Z,33.97
2022-11-20T19:22:04.247Z,31.63
2022-11-20T19:24:31.385Z,27.10
2022-11-20T19:26:59.434Z,28.30
2022-11-20T19:29:27.067Z,25.70
2022-11-20T19:31:54.007Z,27.43
2022-11-20T19:34:20.848Z,37.60
2022-11-20T19:36:48.299Z,30.30
2022-11-20T19:39:15.077Z,30.47
2022-11-20T19:41:42.452Z,30.10
2022-11-20T19:44:14.634Z,32.70
2022-11-20T19:46:42.010Z,31.63
2022-11-20T19:49:11.642Z,31.57
2022-11-20T19:51:39.938Z,33.60
2022-11-20T19:54:07.634Z,32.00
2022-11-20T19:56:34.838Z,31.97
2022-11-20T19:59:01.729Z,30.97
2022-11-20T20:01:30.957Z,33.80
2022-11-20T20:04:02.531Z,36.03
2022-11-20T20:06:29.645Z,27.47
2022-11-20T20:08:57.385Z,26.47
2022-11-20T20:11:25.769Z,29.13
2022-11-20T20:13:53.424Z,26.63
2022-11-20T20:16:23.074Z,24.83
2022-11-20T20:18:49.803Z,25.70
2022-11-20T20:21:18.588Z,27.83
2022-11-20T20:23:49.901Z,27.37
2022-11-20T20:26:16.568Z,24.30
2022-11-20T20:28:43.233Z,26.13
2022-11-20T20:31:12.744Z,23.33
2022-11-20T20:33:40.641Z,22.90
2022-11-20T20:36:09.712Z,21.20
2022-11-20T20:38:36.592Z,20.70
2022-11-20T20:41:03.747Z,25.73
2022-11-20T20:43:31.430Z,24.07
2022-11-20T20:45:58.199Z,26.73
2022-11-20T20:48:25.460Z,37.40
2022-11-20T20:53:59.566Z,106.00
2022-11-20T20:56:26.353Z,89.70
2022-11-20T20:58:53.024Z,55.27
2022-11-20T21:01:20.542Z,41.43
2022-11-20T21:03:47.330Z,32.70
2022-11-20T21:06:14.729Z,30.70
2022-11-20T21:08:44.129Z,27.87
2022-11-20T21:11:13.692Z,21.93
2022-11-20T21:13:42.886Z,24.30
2022-11-20T21:16:10.865Z,21.37
2022-11-20T21:18:38.077Z,16.17
2022-11-20T21:21:25.344Z,17.37
2022-11-20T21:23:53.428Z,15.60
2022-11-20T21:26:21.447Z,15.83
2022-11-20T21:28:49.794Z,13.77
2022-11-20T21:31:22.411Z,15.13
2022-11-20T21:33:51.075Z,14.23
2022-11-20T21:36:20.079Z,13.80
2022-11-20T21:38:47.732Z,16.67
2022-11-20T21:41:15.431Z,12.07
2022-11-20T21:43:45.048Z,12.17
2022-11-20T21:46:14.502Z,13.07
2022-11-20T21:48:42.895Z,13.70
2022-11-20T21:51:14.995Z,10.93
2022-11-20T21:53:43.166Z,8.30
2022-11-20T21:56:15.253Z,9.63
2022-11-20T21:58:45.056Z,7.50
2022-11-20T22:01:13.283Z,9.03
2022-11-20T22:03:40.803Z,6.83
2022-11-20T22:06:09.058Z,7.23
2022-11-20T22:08:37.486Z,6.20
2022-11-20T22:11:12.920Z,6.17
2022-11-20T22:13:58.727Z,4.87
2022-11-20T22:16:25.964Z,5.50
2022-11-20T22:18:55.591Z,6.83
2022-11-20T22:21:27.287Z,4.30
2022-11-20T22:23:55.080Z,7.57
2022-11-20T22:26:24.217Z,4.20
2022-11-20T22:28:52.843Z,5.77
2022-11-20T22:31:21.284Z,5.43
2022-11-20T22:33:48.432Z,4.50
2022-11-20T22:36:20.202Z,4.00
2022-11-20T22:38:47.113Z,5.50
2022-11-20T22:41:16.525Z,5.27
2022-11-20T22:43:44.178Z,3.40
2022-11-20T22:46:11.937Z,4.23
2022-11-20T22:48:41.795Z,4.90
2022-11-20T22:51:11.408Z,3.90
2022-11-20T22:53:38.498Z,3.40
2022-11-20T22:56:09.460Z,4.10
2022-11-20T22:58:37.747Z,4.13
2022-11-20T23:01:11.353Z,4.50
2022-11-20T23:03:39.023Z,3.63
2022-11-20T23:06:06.223Z,3.17
2022-11-20T23:08:33.300Z,6.33
2022-11-20T23:11:01.203Z,2.97
2022-11-20T23:13:28.515Z,3.10
2022-11-20T23:16:00.037Z,4.03
2022-11-20T23:18:26.694Z,2.60
2022-11-20T23:20:53.340Z,3.80
2022-11-20T23:23:20.005Z,2.87
2022-11-20T23:25:46.664Z,4.27
2022-11-20T23:28:13.383Z,2.83
2022-11-20T23:30:40.060Z,4.43
2022-11-20T23:33:06.734Z,3.93
2022-11-20T23:35:39.344Z,3.30
2022-11-20T23:38:06.076Z,3.77
2022-11-20T23:40:38.682Z,3.20
2022-11-20T23:43:16.869Z,3.03
2022-11-20T23:45:48.243Z,7.47
2022-11-20T23:48:15.415Z,4.70
2022-11-20T23:50:43.663Z,3.87
2022-11-20T23:53:11.596Z,3.63
2022-11-20T23:55:38.559Z,3.27
2022-11-20T23:58:06.284Z,3.10
